createdAt,value
2022-08-18T00:01:25.046Z,13.98
2022-08-18T00:03:56.330Z,14.52
2022-08-18T00:06:30.252Z,15.05
2022-08-18T00:08:58.375Z,14.57
2022-08-18T00:11:25.570Z,13.57
2022-08-18T00:13:53.104Z,15.02
2022-08-18T00:16:20.249Z,13.50
2022-08-18T00:18:47.409Z,13.18
2022-08-18T00:21:14.524Z,13.65
2022-08-18T00:23:41.635Z,13.75
2022-08-18T00:26:08.814Z,14.80
2022-08-18T00:28:35.909Z,13.23
2022-08-18T00:31:03.171Z,14.50
2022-08-18T00:33:30.287Z,13.60
2022-08-18T00:35:57.431Z,14.20
2022-08-18T00:38:25.518Z,16.40
2022-08-18T00:40:54.588Z,14.60
2022-08-18T00:43:35.113Z,18.05
2022-08-18T00:46:02.461Z,13.00
2022-08-18T00:48:29.652Z,12.45
2022-08-18T00:50:58.525Z,14.52
2022-08-18T00:53:36.668Z,13.27
2022-08-18T00:56:11.911Z,15.32
2022-08-18T00:58:43.947Z,16.67
2022-08-18T01:01:12.205Z,16.63
2022-08-18T01:03:40.136Z,21.42
2022-08-18T01:06:14.606Z,21.70
2022-08-18T01:08:41.841Z,21.13
2022-08-18T01:11:10.487Z,18.55
2022-08-18T01:13:38.757Z,16.67
2022-08-18T01:16:25.989Z,15.18
2022-08-18T01:19:12.087Z,16.00
2022-08-18T01:21:53.726Z,14.95
2022-08-18T01:24:44.043Z,14.05
2022-08-18T01:27:11.442Z,14.05
2022-08-18T01:29:43.240Z,13.45
2022-08-18T01:32:12.487Z,14.95
2022-08-18T01:34:39.644Z,13.90
2022-08-18T01:37:06.835Z,17.98
2022-08-18T01:41:22.912Z,15.30
2022-08-18T01:42:21.917Z,15.80
2022-08-18T01:44:51.331Z,17.65
2022-08-18T01:47:20.650Z,19.15
2022-08-18T01:49:47.813Z,19.83
2022-08-18T01:52:19.514Z,18.55
2022-08-18T01:54:46.926Z,19.23
2022-08-18T01:57:16.026Z,18.95
2022-08-18T01:59:43.536Z,17.10
2022-08-18T02:02:18.349Z,18.10
2022-08-18T02:04:46.364Z,18.98
2022-08-18T02:07:14.970Z,16.35
2022-08-18T02:09:43.218Z,19.38
2022-08-18T02:12:11.387Z,18.05
2022-08-18T02:14:39.059Z,17.25
2022-08-18T02:17:07.856Z,16.15
2022-08-18T02:19:39.306Z,16.90
2022-08-18T02:22:07.193Z,15.80
2022-08-18T02:24:34.315Z,16.33
2022-08-18T02:27:01.640Z,17.85
2022-08-18T02:29:28.794Z,14.52
2022-08-18T02:31:55.939Z,17.10
2022-08-18T02:34:23.355Z,18.63
2022-08-18T02:36:50.533Z,19.27
2022-08-18T02:39:17.914Z,22.08
2022-08-18T02:41:45.092Z,19.05
2022-08-18T02:44:12.252Z,17.90
2022-08-18T02:46:40.098Z,17.88
2022-08-18T02:49:08.092Z,16.55
2022-08-18T02:51:35.274Z,17.70
2022-08-18T02:54:02.410Z,20.13
2022-08-18T02:56:40.390Z,20.98
2022-08-18T02:59:09.718Z,21.38
2022-08-18T03:01:40.794Z,19.77
2022-08-18T03:04:09.467Z,19.55
2022-08-18T03:06:37.941Z,19.95
2022-08-18T03:09:08.797Z,21.88
2022-08-18T03:11:36.513Z,21.98
2022-08-18T03:14:05.306Z,19.40
2022-08-18T03:16:33.027Z,22.35
2022-08-18T03:19:03.170Z,24.77
2022-08-18T03:21:31.781Z,25.95
2022-08-18T03:24:01.247Z,24.52
2022-08-18T03:26:29.991Z,21.73
2022-08-18T03:28:57.826Z,21.10
2022-08-18T03:31:27.728Z,21.30
2022-08-18T03:33:57.837Z,20.33
2022-08-18T03:36:28.619Z,16.52
2022-08-18T03:38:55.804Z,18.73
2022-08-18T03:41:43.689Z,15.80
2022-08-18T03:44:12.521Z,16.27
2022-08-18T03:46:40.946Z,14.60
2022-08-18T03:49:08.996Z,12.20
2022-08-18T03:51:36.857Z,12.70
2022-08-18T03:54:04.892Z,11.60
2022-08-18T03:56:34.106Z,11.68
2022-08-18T03:59:03.210Z,16.73
2022-08-18T04:01:32.993Z,12.98
2022-08-18T04:04:02.199Z,11.55
2022-08-18T04:06:31.080Z,12.15
2022-08-18T04:09:00.425Z,12.80
2022-08-18T04:11:28.519Z,13.25
2022-08-18T04:14:02.854Z,11.30
2022-08-18T04:16:32.334Z,12.70
2022-08-18T04:19:04.135Z,12.45
2022-08-18T04:21:32.969Z,11.60
2022-08-18T04:24:04.907Z,11.25
2022-08-18T04:26:32.930Z,11.68
2022-08-18T04:29:01.654Z,10.70
2022-08-18T04:31:30.022Z,12.25
2022-08-18T04:34:00.542Z,13.63
2022-08-18T04:36:28.726Z,16.92
2022-08-18T04:38:56.460Z,15.48
2022-08-18T04:41:27.286Z,13.52
2022-08-18T04:44:04.626Z,11.63
2022-08-18T04:46:36.058Z,11.95
2022-08-18T04:49:03.772Z,12.23
2022-08-18T04:52:30.934Z,11.57
2022-08-18T04:54:18.018Z,11.48
2022-08-18T04:56:45.173Z,11.15
2022-08-18T04:59:13.773Z,12.82
2022-08-18T05:01:42.383Z,12.52
2022-08-18T05:04:10.280Z,12.38
2022-08-18T05:06:37.841Z,10.98
2022-08-18T05:09:06.891Z,12.73
2022-08-18T05:11:34.553Z,12.75
2022-08-18T05:14:06.203Z,12.60
2022-08-18T05:16:36.403Z,12.13
2022-08-18T05:19:16.385Z,11.75
2022-08-18T05:21:48.976Z,10.90
2022-08-18T05:24:18.151Z,12.30
2022-08-18T05:26:45.810Z,12.07
2022-08-18T05:29:18.609Z,11.77
2022-08-18T05:31:46.946Z,11.10
2022-08-18T05:34:14.118Z,10.88
2022-08-18T05:36:50.408Z,14.20
2022-08-18T05:39:23.405Z,10.93
2022-08-18T05:41:53.374Z,12.52
2022-08-18T05:44:27.186Z,11.27
2022-08-18T05:46:54.365Z,11.63
2022-08-18T05:49:22.106Z,12.73
2022-08-18T05:51:58.979Z,11.80
2022-08-18T05:54:46.994Z,10.90
2022-08-18T05:57:17.913Z,12.98
2022-08-18T05:59:47.955Z,11.95
2022-08-18T06:02:15.236Z,10.48
2022-08-18T06:04:42.522Z,11.18
2022-08-18T06:07:11.369Z,10.98
2022-08-18T06:09:40.981Z,12.30
2022-08-18T06:12:28.458Z,12.77
2022-08-18T06:15:05.949Z,15.32
2022-08-18T06:17:43.815Z,13.10
2022-08-18T06:20:29.250Z,13.27
2022-08-18T06:22:56.487Z,13.63
2022-08-18T06:25:23.627Z,13.82
2022-08-18T06:27:55.526Z,14.18
2022-08-18T06:30:25.264Z,13.70
2022-08-18T06:32:53.013Z,13.07
2022-08-18T06:35:34.494Z,14.38
2022-08-18T06:38:32.250Z,13.50
2022-08-18T06:41:40.720Z,11.48
2022-08-18T06:44:03.775Z,11.85
2022-08-18T06:46:36.262Z,9.00
2022-08-18T06:49:05.667Z,8.90
2022-08-18T06:51:36.278Z,9.75
2022-08-18T06:54:05.932Z,8.93
2022-08-18T06:56:36.008Z,8.30
2022-08-18T06:59:21.883Z,12.73
2022-08-18T07:12:43.528Z,12.20
2022-08-18T07:15:13.624Z,10.38
2022-08-18T07:17:43.332Z,12.32
2022-08-18T07:20:20.539Z,13.05
2022-08-18T07:23:07.878Z,12.38
2022-08-18T07:25:45.932Z,11.65
2022-08-18T07:28:29.895Z,14.02
2022-08-18T07:31:17.814Z,13.70
2022-08-18T07:33:48.572Z,10.57
2022-08-18T07:36:17.072Z,9.82
2022-08-18T07:38:51.580Z,10.57
2022-08-18T07:41:20.766Z,12.20
2022-08-18T07:43:54.476Z,11.55
2022-08-18T07:46:42.794Z,10.32
2022-08-18T07:49:09.961Z,9.93
2022-08-18T07:51:43.478Z,9.40
2022-08-18T07:54:47.823Z,9.20
2022-08-18T07:57:20.046Z,10.60
2022-08-18T07:59:53.775Z,9.13
2022-08-18T08:02:23.774Z,10.13
2022-08-18T08:05:02.498Z,9.57
2022-08-18T08:07:41.912Z,10.52
2022-08-18T08:10:12.071Z,8.45
2022-08-18T08:12:42.061Z,8.90
2022-08-18T08:15:09.248Z,8.90
2022-08-18T08:17:55.302Z,10.25
2022-08-18T08:20:42.679Z,12.32
2022-08-18T08:23:10.515Z,13.25
2022-08-18T08:25:46.692Z,12.82
2022-08-18T08:28:18.392Z,13.52
2022-08-18T08:31:33.072Z,14.68
2022-08-18T08:33:54.688Z,13.13
2022-08-18T08:36:25.560Z,15.93
2022-08-18T08:39:02.140Z,15.27
2022-08-18T08:41:29.284Z,14.95
2022-08-18T08:44:17.868Z,15.43
2022-08-18T08:46:52.709Z,14.18
2022-08-18T08:49:43.220Z,14.90
2022-08-18T08:52:23.882Z,14.20
2022-08-18T08:55:03.939Z,16.20
2022-08-18T08:57:33.984Z,13.75
2022-08-18T09:00:04.205Z,14.30
2022-08-18T09:02:47.827Z,14.63
2022-08-18T09:05:21.863Z,13.02
2022-08-18T09:07:54.976Z,13.35
2022-08-18T09:10:39.721Z,12.40
2022-08-18T09:13:12.661Z,12.90
2022-08-18T09:15:54.852Z,13.82
2022-08-18T09:18:29.298Z,12.30
2022-08-18T09:21:19.557Z,11.77
2022-08-18T09:23:47.918Z,11.82
2022-08-18T09:26:43.710Z,12.82
2022-08-18T09:29:23.280Z,12.85
2022-08-18T09:32:12.579Z,11.98
2022-08-18T09:34:45.474Z,13.13
2022-08-18T09:37:16.063Z,12.82
2022-08-18T09:46:00.177Z,10.45
2022-08-18T09:51:15.619Z,11.75
2022-08-18T09:53:47.954Z,10.93
2022-08-18T09:56:19.692Z,10.68
2022-08-18T09:59:02.945Z,11.55
2022-08-18T10:01:40.098Z,11.48
2022-08-18T10:04:21.715Z,12.70
2022-08-18T10:06:49.748Z,10.27
2022-08-18T10:09:27.160Z,12.40
2022-08-18T10:12:04.187Z,11.23
2022-08-18T10:14:51.543Z,12.95
2022-08-18T10:20:08.787Z,9.52
2022-08-18T10:22:54.434Z,13.65
2022-08-18T10:25:32.712Z,13.23
2022-08-18T10:28:05.317Z,11.23
2022-08-18T10:33:16.887Z,11.43
2022-08-18T10:35:56.791Z,11.43
2022-08-18T10:38:30.977Z,11.70
2022-08-18T10:41:10.153Z,10.77
2022-08-18T10:43:55.193Z,11.52
2022-08-18T10:46:27.090Z,11.55
2022-08-18T10:49:07.554Z,14.90
2022-08-18T10:54:54.339Z,10.55
2022-08-18T10:57:33.857Z,11.45
2022-08-18T11:00:13.478Z,11.50
2022-08-18T11:05:46.918Z,14.07
2022-08-18T11:08:17.227Z,13.10
2022-08-18T11:11:06.483Z,12.95
2022-08-18T11:13:35.377Z,12.35
2022-08-18T11:16:21.484Z,14.43
2022-08-18T11:18:49.859Z,14.23
2022-08-18T11:21:51.722Z,11.10
2022-08-18T11:24:27.576Z,10.77
2022-08-18T11:26:56.446Z,12.32
2022-08-18T11:29:26.936Z,11.27
2022-08-18T11:31:59.435Z,12.65
2022-08-18T11:34:53.607Z,10.63
2022-08-18T11:37:20.935Z,10.30
2022-08-18T11:39:49.582Z,9.38
2022-08-18T11:42:24.912Z,9.48
2022-08-18T11:44:54.853Z,10.40
2022-08-18T11:47:23.607Z,10.55
2022-08-18T11:50:04.391Z,9.18
2022-08-18T11:52:32.988Z,8.18
2022-08-18T11:55:03.703Z,8.27
2022-08-18T11:57:54.499Z,9.97
2022-08-18T12:00:43.221Z,11.35
2022-08-18T12:03:28.582Z,8.07
2022-08-18T12:06:01.749Z,11.18
2022-08-18T12:08:56.332Z,12.77
2022-08-18T12:11:27.081Z,8.38
2022-08-18T12:13:59.448Z,8.95
2022-08-18T12:16:35.660Z,11.50
2022-08-18T12:19:05.398Z,10.40
2022-08-18T12:21:38.795Z,8.63
2022-08-18T12:24:13.440Z,7.38
2022-08-18T12:26:47.327Z,7.38
2022-08-18T12:29:16.193Z,8.80
2022-08-18T12:31:48.105Z,7.50
2022-08-18T12:34:18.008Z,8.15
2022-08-18T12:36:55.044Z,9.30
2022-08-18T12:39:23.247Z,7.70
2022-08-18T12:41:51.558Z,9.18
2022-08-18T12:44:19.427Z,6.97
2022-08-18T12:46:47.745Z,11.38
2022-08-18T12:49:20.308Z,7.88
2022-08-18T12:51:50.260Z,8.70
2022-08-18T12:54:18.865Z,8.13
2022-08-18T12:56:48.807Z,8.20
2022-08-18T12:59:16.683Z,10.35
2022-08-18T13:01:44.862Z,10.27
2022-08-18T13:04:14.277Z,6.80
2022-08-18T13:07:00.893Z,7.72
2022-08-18T13:09:34.639Z,7.65
2022-08-18T13:12:19.300Z,6.32
2022-08-18T13:14:46.844Z,7.05
2022-08-18T13:17:33.104Z,8.02
2022-08-18T13:20:19.412Z,6.57
2022-08-18T13:22:48.351Z,7.68
2022-08-18T13:25:32.559Z,7.50
2022-08-18T13:28:05.715Z,6.57
2022-08-18T13:30:33.170Z,9.82
2022-08-18T13:33:33.977Z,8.43
2022-08-18T13:35:54.119Z,9.45
2022-08-18T13:38:27.114Z,13.10
2022-08-18T13:40:56.060Z,7.85
2022-08-18T13:43:25.994Z,10.55
2022-08-18T13:45:55.999Z,9.18
2022-08-18T13:48:24.083Z,6.97
2022-08-18T13:50:52.740Z,7.40
2022-08-18T13:53:21.776Z,9.77
2022-08-18T13:55:49.515Z,8.75
2022-08-18T13:58:20.841Z,7.95
2022-08-18T14:00:49.570Z,7.43
2022-08-18T14:03:30.779Z,7.35
2022-08-18T14:06:06.987Z,8.32
2022-08-18T14:08:34.820Z,9.13
2022-08-18T14:11:03.004Z,8.45
2022-08-18T14:13:38.292Z,8.00
2022-08-18T14:16:18.475Z,12.13
2022-08-18T14:19:09.405Z,7.18
2022-08-18T14:22:03.415Z,7.70
2022-08-18T14:24:50.114Z,8.00
2022-08-18T14:27:34.917Z,9.45
2022-08-18T14:30:07.119Z,10.10
2022-08-18T14:32:36.125Z,7.95
2022-08-18T14:35:33.454Z,9.98
2022-08-18T14:37:51.872Z,7.10
2022-08-18T14:40:20.163Z,8.55
2022-08-18T14:42:55.105Z,7.75
2022-08-18T14:45:27.651Z,7.50
2022-08-18T14:48:01.288Z,7.50
2022-08-18T14:50:29.449Z,7.32
2022-08-18T14:52:58.999Z,7.40
2022-08-18T14:55:26.793Z,10.13
2022-08-18T14:57:54.454Z,7.78
2022-08-18T15:00:22.694Z,11.18
2022-08-18T15:02:51.245Z,7.75
2022-08-18T15:05:19.442Z,9.70
2022-08-18T15:07:51.400Z,8.07
2022-08-18T15:10:19.931Z,9.13
2022-08-18T15:12:51.202Z,11.02
2022-08-18T15:15:18.830Z,7.72
2022-08-18T15:17:52.443Z,8.38
2022-08-18T15:20:20.757Z,6.65
2022-08-18T15:23:14.748Z,6.32
2022-08-18T15:25:44.971Z,6.95
2022-08-18T15:28:16.437Z,7.60
2022-08-18T15:30:51.029Z,6.65
2022-08-18T15:33:23.620Z,6.80
2022-08-18T15:35:53.507Z,6.40
2022-08-18T15:38:21.737Z,7.25
2022-08-18T15:40:52.212Z,6.68
2022-08-18T15:43:25.464Z,7.80
2022-08-18T15:45:58.529Z,7.05
2022-08-18T15:48:26.855Z,8.40
2022-08-18T15:50:54.437Z,7.03
2022-08-18T15:53:23.348Z,6.57
2022-08-18T15:55:50.745Z,9.18
2022-08-18T15:58:22.588Z,6.28
2022-08-18T16:00:54.494Z,7.10
2022-08-18T16:03:21.928Z,10.82
2022-08-18T16:05:52.812Z,7.47
2022-08-18T16:08:21.598Z,10.07
2022-08-18T16:10:48.775Z,10.07
2022-08-18T16:13:16.145Z,6.95
2022-08-18T16:15:46.650Z,15.05
2022-08-18T16:18:15.408Z,8.95
2022-08-18T16:20:43.608Z,7.13
2022-08-18T16:23:14.755Z,15.45
2022-08-18T16:25:42.718Z,16.67
2022-08-18T16:28:10.091Z,10.93
2022-08-18T16:30:37.228Z,9.07
2022-08-18T16:33:06.433Z,6.85
2022-08-18T16:35:34.477Z,6.95
2022-08-18T16:38:09.021Z,6.57
2022-08-18T16:40:36.542Z,8.70
2022-08-18T16:43:03.949Z,8.25
2022-08-18T16:45:32.958Z,6.72
2022-08-18T16:48:00.484Z,6.85
2022-08-18T16:50:28.040Z,7.53
2022-08-18T16:52:55.230Z,7.07
2022-08-18T16:55:25.102Z,6.25
2022-08-18T16:58:15.250Z,8.13
2022-08-18T17:01:01.652Z,7.45
2022-08-18T17:03:47.614Z,7.55
2022-08-18T17:06:16.086Z,7.80
2022-08-18T17:08:43.790Z,9.45
2022-08-18T17:11:13.791Z,7.20
2022-08-18T17:13:41.685Z,7.18
2022-08-18T17:16:08.973Z,6.28
2022-08-18T17:18:36.365Z,9.25
2022-08-18T17:21:04.267Z,8.75
2022-08-18T17:23:31.865Z,8.68
2022-08-18T17:25:59.430Z,7.78
2022-08-18T17:28:29.701Z,7.25
2022-08-18T17:30:59.426Z,8.60
2022-08-18T17:33:28.711Z,8.52
2022-08-18T17:35:56.865Z,7.10
2022-08-18T17:38:46.362Z,8.25
2022-08-18T17:41:13.685Z,7.28
2022-08-18T17:46:17.665Z,7.30
2022-08-18T17:48:47.711Z,9.32
2022-08-18T17:51:37.670Z,7.07
2022-08-18T17:54:22.026Z,7.93
2022-08-18T17:56:52.628Z,9.55
2022-08-18T17:59:45.971Z,9.88
2022-08-18T18:02:30.159Z,10.38
2022-08-18T18:04:58.750Z,7.25
2022-08-18T18:07:46.627Z,11.07
2022-08-18T18:10:20.987Z,8.55
2022-08-18T18:12:48.078Z,8.57
2022-08-18T18:15:15.563Z,8.07
2022-08-18T18:17:43.788Z,9.23
2022-08-18T18:20:15.703Z,7.47
2022-08-18T18:22:44.069Z,7.75
2022-08-18T18:25:12.706Z,7.50
2022-08-18T18:27:41.883Z,7.90
2022-08-18T18:30:09.218Z,7.80
2022-08-18T18:32:59.483Z,9.70
2022-08-18T18:35:27.789Z,8.90
2022-08-18T18:38:02.961Z,8.15
2022-08-18T18:40:32.828Z,8.05
2022-08-18T18:43:17.978Z,9.48
2022-08-18T18:45:59.738Z,7.88
2022-08-18T18:48:45.103Z,11.73
2022-08-18T18:51:33.288Z,8.27
2022-08-18T18:54:21.399Z,8.00
2022-08-18T18:56:57.631Z,9.32
2022-08-18T18:59:45.325Z,9.57
2022-08-18T19:02:34.076Z,8.80
2022-08-18T19:05:05.198Z,9.20
2022-08-18T19:07:37.668Z,9.20
2022-08-18T19:10:09.924Z,8.80
2022-08-18T19:12:43.475Z,9.00
2022-08-18T19:15:14.915Z,10.82
2022-08-18T19:17:44.844Z,9.35
2022-08-18T19:20:13.948Z,9.38
2022-08-18T19:22:45.523Z,8.82
2022-08-18T19:25:24.624Z,8.80
2022-08-18T19:27:54.170Z,7.63
2022-08-18T19:30:22.715Z,8.52
2022-08-18T19:32:52.036Z,8.15
2022-08-18T19:35:38.493Z,7.78
2022-08-18T19:38:13.031Z,7.65
2022-08-18T19:40:45.016Z,7.95
2022-08-18T19:43:17.890Z,8.23
2022-08-18T19:46:10.601Z,12.73
2022-08-18T19:48:41.072Z,8.32
2022-08-18T19:51:29.567Z,8.15
2022-08-18T19:54:04.162Z,9.98
2022-08-18T19:56:32.703Z,7.80
2022-08-18T19:59:19.455Z,8.30
2022-08-18T20:01:54.614Z,9.27
2022-08-18T20:04:36.222Z,9.88
2022-08-18T20:07:21.982Z,8.57
2022-08-18T20:10:08.024Z,8.73
2022-08-18T20:12:57.575Z,11.65
2022-08-18T20:15:26.537Z,9.00
2022-08-18T20:17:59.481Z,9.45
2022-08-18T20:20:31.333Z,9.90
2022-08-18T20:22:59.382Z,12.57
2022-08-18T20:25:46.927Z,10.85
2022-08-18T20:28:23.515Z,9.93
2022-08-18T20:31:11.679Z,9.13
2022-08-18T20:33:43.353Z,8.35
2022-08-18T20:36:19.362Z,9.23
2022-08-18T20:38:51.337Z,9.98
2022-08-18T20:41:27.588Z,9.32
2022-08-18T20:44:00.990Z,9.35
2022-08-18T20:46:33.701Z,9.57
2022-08-18T20:49:06.169Z,8.60
2022-08-18T20:51:39.431Z,9.35
2022-08-18T20:54:13.202Z,10.18
2022-08-18T20:56:44.401Z,9.57
2022-08-18T20:59:16.468Z,9.55
2022-08-18T21:01:43.597Z,10.25
2022-08-18T21:04:10.732Z,10.50
2022-08-18T21:06:41.986Z,10.00
2022-08-18T21:09:10.388Z,11.30
2022-08-18T21:11:45.606Z,10.48
2022-08-18T21:14:15.014Z,11.00
2022-08-18T21:16:46.149Z,12.00
2022-08-18T21:19:23.478Z,12.02
2022-08-18T21:21:55.823Z,11.48
2022-08-18T21:24:36.629Z,11.70
2022-08-18T21:27:11.537Z,11.45
2022-08-18T21:29:47.158Z,11.43
2022-08-18T21:32:21.773Z,11.88
2022-08-18T21:34:50.747Z,12.77
2022-08-18T21:37:18.837Z,12.57
2022-08-18T21:39:49.029Z,15.05
2022-08-18T21:42:26.038Z,13.00
2022-08-18T21:44:54.978Z,14.60
2022-08-18T21:47:26.010Z,15.20
2022-08-18T21:50:00.317Z,12.48
2022-08-18T21:52:29.079Z,12.55
2022-08-18T21:54:58.319Z,14.98
2022-08-18T21:57:27.356Z,14.30
2022-08-18T22:00:16.995Z,13.77
2022-08-18T22:02:44.545Z,14.85
2022-08-18T22:05:12.800Z,14.75
2022-08-18T22:07:47.810Z,14.35
2022-08-18T22:10:50.856Z,15.63
2022-08-18T22:13:44.310Z,13.70
2022-08-18T22:16:22.931Z,13.57
2022-08-18T22:18:50.304Z,13.75
2022-08-18T22:21:36.075Z,12.80
2022-08-18T22:24:21.446Z,12.93
2022-08-18T22:27:04.366Z,14.15
2022-08-18T22:32:01.494Z,17.02
2022-08-18T22:34:30.352Z,13.65
2022-08-18T22:36:59.783Z,17.23
2022-08-18T22:39:29.513Z,14.90
2022-08-18T22:41:57.137Z,15.82
2022-08-18T22:44:24.515Z,13.82
2022-08-18T22:46:52.813Z,14.27
2022-08-18T22:49:20.609Z,14.48
2022-08-18T22:51:49.273Z,14.38
2022-08-18T22:54:16.906Z,14.10
2022-08-18T22:56:56.760Z,13.80
2022-08-18T22:59:25.596Z,14.32
2022-08-18T23:01:54.821Z,13.82
2022-08-18T23:04:23.087Z,12.85
2022-08-18T23:06:53.792Z,13.95
2022-08-18T23:09:25.402Z,13.75
2022-08-18T23:11:53.395Z,13.35
2022-08-18T23:14:20.548Z,13.32
2022-08-18T23:16:47.866Z,14.02
2022-08-18T23:19:16.348Z,12.73
2022-08-18T23:21:43.899Z,13.73
2022-08-18T23:24:12.340Z,15.82
2022-08-18T23:26:40.333Z,14.85
2022-08-18T23:29:09.346Z,14.98
2022-08-18T23:31:36.487Z,13.90
2022-08-18T23:34:03.625Z,13.93
2022-08-18T23:36:31.327Z,14.45
2022-08-18T23:38:58.696Z,14.57
2022-08-18T23:41:25.890Z,14.18
2022-08-18T23:43:53.416Z,14.88
2022-08-18T23:46:28.609Z,14.18
2022-08-18T23:48:57.262Z,14.43
2022-08-18T23:51:29.399Z,15.40
2022-08-18T23:54:02.142Z,15.10
2022-08-18T23:58:57.252Z,15.25
